Bert Mooney Airport
KBTM : rendu visible

Aérodrome :











RETROUVEZ-NOUS SUR...

 
LOGIN :

S'inscrire | Disclaimer

   EN    FR    IT 

 









Légende :    VFR   VFR Marginal   IFR   IFR Intensif   IFR Très Intensif
Visi : 
Plafond : 
>= 8 km
>= 3000ft
5 à 8 km
1000 à 3000 ft
1500m à 5 km
500 à 1000 ft
800 à 1500m
200 à 500 ft
< 800m
< 200 ft
Symboles :   Orages  Brouillard  Fortes neiges  Fortes précipitations  Vent > 20 kt






- Altitude de l'aérodrome : 5550 ft
- Code IATA : BTM


KBTM - Bert Mooney

DERNIER METAR :
  • 222353Z AUTO 01005KT 10SM CLR 01/M06 A3015 RMK AO2 SLP259 T00111056 10067 21017 51011

METARs EXPIRÉS :
  • 222253Z AUTO 32007KT 10SM CLR 04/M05 A3014 RMK AO2 SLP248 T00391050
  • 222153Z AUTO 31007KT 10SM CLR 06/M08 A3013 RMK AO2 SLP234 T00611078

TAF KBTM
Valide du 23 à 00h jusqu'au 24 à 00h UTC


222338Z 2300/2324 VRB04KT P6SM SKC



MET'MAP, la Météo Aéronautique d'un coup d'oeil ! - Copyright ORBIFLY Décembre 2007 - Disclaimer

ORBIFLY MET'MAP TEAM :

Programmation & Développement : Alexandra Zaïnal
Conception & Développement : Baudouin d'Aumeries
Co-Programmation & Développement : Marc-Olivier Méhu
Soutien technique & logistique : Manuel Goepfert

Contact : metmap@orbifly.com




SOURCES & CREDITS :

   NOAA       Earth
Advisory